Terminal Aerodrome Forecast
Issued by NWS Mt. Holly, NJ

Home | Current Version | Previous Version | Text Only | Print | Product List | Glossary On
Versions: 1 2 3 4 5 6 7 8 9 10 11 12 13 14 15 16 17 18 19
000
FTUS41 KPHI 220535
TAFRDG
TAF
KRDG 220535Z 2206/2306 31009KT P6SM OVC050
     FM220800 31008KT P6SM FEW050
     FM221300 30012G22KT P6SM SKC
     FM221700 28015G24KT P6SM SCT060
      TEMPO 2218/2221 BKN060
     FM222300 30011KT P6SM SKC
     FM230300 33009G18KT P6SM SKC=

USA.gov is the U.S. government's official web portal to all federal, state and local government web resources and services.